Historyczne dane pomiarowe

Dodano dane terminowe – wersja testowa.

Dane z okresu 1951-2019

Wersja bazy: 1.34 [2019-03-16, lista zmian], aktualizacja planowana na 2019-04-15

Dane meteo z obszaru Polski uzyskane na podstawie danych udostępnionych przez Instytut Meteorologii i Gospodarki Wodnej – Państwowy Instytut Badawczy.

 

Wybierz Datę:    

       

TemperaturaWilgotnośćWiatrCiśnienieOpadyŚniegCzas trwania zjawisk
 Stacja t tx tn tng RH VA  wxwx mslp ppp RRR   cm mm wxwxwxwxwxwxwx
1990-12-13 0.9 3.0 -0.2 -3.0 81.3- 1.7 1.7---- 0.0------------
1990-12-14 1.3 2.3 0.6 0.0 91.0- 8.0 1.3---- 0.1------------
1990-12-15 0.8 1.6 0.6 -0.2 93.5- 8.0 2.0---- 2.6------------
1990-12-16 0.1 1.1 -0.5 -0.8 96.0- 8.0 1.0---- 1.6------------
1990-12-17 -0.3 0.1 -0.7 -1.3 92.5- 8.0 1.3---- 0.2-- 1---------
1990-12-18 -0.7 0.6 -1.1 -3.3 91.8- 8.0 2.3---- 0.4-- 2---------
1990-12-19 -0.4 2.2 -1.6 -4.8 91.3- 7.7 0.3---- 0.0-- 3---------
1990-12-20 -1.7 0.5 -3.9 -7.5 82.3- 5.7 1.3---- 0.0-- 2---------
1990-12-21 -0.3 3.1 -4.4 -8.6 79.8- 8.0 2.0---- 0.5-- 2---------
1990-12-22 0.4 2.2 -1.6 -5.8 82.8- 6.3 2.7---- 0.0-- 3---------
1990-12-23 -4.0 -1.6 -6.2 -8.9 91.8- 7.7 1.3---- 0.0-- 2---------
1990-12-24 -5.8 -0.7 -9.6-11.4 80.3- 0.3 0.7---- 0.0-- 2---------
1990-12-25 -6.0 1.0-10.1-13.0 82.3- 0.0 0.3---- 0.0-- 2---------
1990-12-26 -1.9 5.6 -7.9-12.5 74.5- 2.7 0.3---- 0.0-- 1---------
1990-12-27 4.7 7.7 -1.5 -5.6 67.0- 7.7 1.3---- 0.3------------
1990-12-28 2.4 5.6 -0.2 -4.5 75.8- 2.7 2.3---- 0.1------------
1990-12-29 0.4 5.4 -4.3 -8.0 73.8- 6.3 1.7---- 0.1------------
1990-12-30 6.6 10.1 2.2 -1.0 76.5- 7.7 0.7---- 0.5------------
1990-12-31 3.6 8.0 1.5 -1.1 87.3- 5.3 1.3---- 2.1------------
1991-01-01 3.0 5.2 0.9 -1.6 91.8- 8.0 2.0---- 0.1------------
1991-01-02 3.4 6.0 1.6 -1.4 66.5- 6.3 3.0---- 0.0------------
1991-01-03 7.2 11.5 4.4 0.3 82.0- 6.3 2.0---- 3.3------------
1991-01-04 7.8 13.6 3.4 -0.9 82.8- 3.7 1.3---- 3.0------------
1991-01-05 5.0 9.3 0.7 -3.3 86.3- 5.3 1.7---- 0.0------------
1991-01-06 2.5 7.3 -2.0 -5.6 76.8- 6.3 2.0---- 0.0------------
1991-01-07 3.9 6.7 0.9 -3.6 72.5- 5.3 0.3---- 1.9------------
1991-01-08 5.3 10.2 3.4 -2.3 83.0- 3.3 1.0---- 0.0------------
1991-01-09 4.6 12.0 -0.3 -4.1 76.0- 4.7 1.0---- 0.0------------
1991-01-10 8.5 14.2 3.0 -2.5 62.8- 3.0 1.3---- 0.0------------
1991-01-11 10.2 13.3 8.2 5.3 66.5- 8.0 1.7---- 1.9------------
443.1 ms

 

Źródłem pochodzenia danych jest Instytut Meteorologii i Gospodarki Wodnej – Państwowy Instytut Badawczy. Dane Instytutu Meteorologii i Gospodarki Wodnej – Państwowego Instytutu Badawczego zostały przetworzone.

Dane źródłowe można odnaleźć na stronie https://dane.imgw.pl